Time;durP1;ratioP1;P1;durP2;ratioP2;P2;SDS_P1;SDS_P2;PMS_P1;PMS_P2;Temp;Humidity;BMP_temperature;BMP_pressure;BME280_temperature;BME280_humidity;BME280_pressure;Samples;Min_cycle;Max_cycle;Signal;HPM_P1;HPM_P2
2024/02/29 00:00:38;;;;;;;87.70;37.90;;;2.60;99.90;;;;;;5111401;28;20034;-68
2024/02/29 00:03:03;;;;;;;77.15;35.90;;;2.60;99.90;;;;;;5110907;28;20380;-68
2024/02/29 00:05:29;;;;;;;90.32;39.03;;;2.60;99.90;;;;;;5111063;28;20039;-67
2024/02/29 00:07:54;;;;;;;86.57;39.85;;;2.60;99.90;;;;;;5109418;28;20131;-67
2024/02/29 00:10:20;;;;;;;81.93;35.63;;;2.60;99.90;;;;;;5111093;28;20704;-68
2024/02/29 00:12:46;;;;;;;88.28;35.53;;;2.60;99.90;;;;;;5110814;28;20522;-68
2024/02/29 00:15:12;;;;;;;90.55;37.03;;;2.60;99.90;;;;;;5111108;28;20687;-69
2024/02/29 00:17:37;;;;;;;83.75;36.75;;;2.50;99.90;;;;;;5110606;28;20024;-69
2024/02/29 00:20:04;;;;;;;83.38;36.55;;;2.50;99.90;;;;;;5110446;28;20442;-68
2024/02/29 00:22:29;;;;;;;81.47;34.47;;;2.50;99.90;;;;;;5110585;28;20019;-68
2024/02/29 00:24:55;;;;;;;79.75;35.47;;;2.50;99.90;;;;;;5111011;28;20051;-69
2024/02/29 00:27:21;;;;;;;79.28;35.30;;;2.50;99.90;;;;;;5108937;28;20042;-68
2024/02/29 00:29:47;;;;;;;71.22;32.50;;;2.50;99.90;;;;;;5108721;28;20019;-69
2024/02/29 00:32:12;;;;;;;79.57;34.25;;;2.50;99.90;;;;;;5108827;28;20047;-67
2024/02/29 00:34:38;;;;;;;79.90;32.60;;;2.50;99.90;;;;;;5110484;28;20066;-69
2024/02/29 00:37:04;;;;;;;79.10;34.08;;;2.50;99.90;;;;;;5108295;28;20111;-68
2024/02/29 00:39:29;;;;;;;77.18;33.47;;;2.50;99.90;;;;;;5108978;28;20040;-68
2024/02/29 00:41:55;;;;;;;83.05;33.88;;;2.50;99.90;;;;;;5109966;28;20073;-69
2024/02/29 00:44:20;;;;;;;85.68;36.78;;;2.50;99.90;;;;;;5110013;28;20023;-68
2024/02/29 00:46:46;;;;;;;72.95;31.92;;;2.40;99.90;;;;;;5109517;28;20036;-69
2024/02/29 00:49:13;;;;;;;76.55;34.40;;;2.40;99.90;;;;;;5108882;28;20396;-66
2024/02/29 00:51:39;;;;;;;79.95;35.13;;;2.40;99.90;;;;;;5110253;27;20100;-66
2024/02/29 00:54:04;;;;;;;81.35;35.80;;;2.40;99.90;;;;;;5110356;27;20019;-67
2024/02/29 00:56:30;;;;;;;82.13;34.42;;;2.30;99.90;;;;;;5108288;28;20035;-67
2024/02/29 00:58:55;;;;;;;78.63;32.35;;;2.30;99.90;;;;;;5109963;28;20481;-67
2024/02/29 01:01:21;;;;;;;80.07;33.25;;;2.20;99.90;;;;;;5108658;28;20144;-67
2024/02/29 01:03:47;;;;;;;75.65;32.63;;;2.20;99.90;;;;;;5108405;28;20039;-68
2024/02/29 01:06:12;;;;;;;76.40;32.55;;;2.10;99.90;;;;;;5107758;28;20321;-68
2024/02/29 01:08:38;;;;;;;73.18;31.60;;;2.10;99.90;;;;;;5109667;28;20067;-68
2024/02/29 01:11:03;;;;;;;79.55;32.22;;;2.00;99.90;;;;;;5109443;28;20566;-68
2024/02/29 01:13:31;;;;;;;67.78;30.27;;;2.00;99.90;;;;;;5109543;28;20019;-68
2024/02/29 01:15:56;;;;;;;73.22;30.65;;;2.00;99.90;;;;;;5107645;28;20102;-68
2024/02/29 01:18:22;;;;;;;72.95;33.35;;;2.00;99.90;;;;;;5109622;28;20099;-68
2024/02/29 01:20:47;;;;;;;73.13;32.53;;;2.00;99.90;;;;;;5109148;28;20130;-68
2024/02/29 01:23:13;;;;;;;73.80;30.98;;;2.00;99.90;;;;;;5109639;28;20027;-67
2024/02/29 01:25:38;;;;;;;71.85;29.58;;;2.00;99.90;;;;;;5108668;28;20595;-67
2024/02/29 01:28:04;;;;;;;72.18;30.02;;;2.00;99.90;;;;;;5109326;28;20024;-67
2024/02/29 01:30:30;;;;;;;67.38;28.55;;;2.00;99.90;;;;;;5108291;28;20024;-67
2024/02/29 01:32:55;;;;;;;64.15;28.27;;;2.00;99.90;;;;;;5107445;28;20053;-67
2024/02/29 01:35:21;;;;;;;70.00;29.70;;;2.00;99.90;;;;;;5108994;28;20368;-67
2024/02/29 01:37:46;;;;;;;61.63;28.45;;;2.10;99.90;;;;;;5107204;28;20020;-67
2024/02/29 01:40:12;;;;;;;59.92;27.27;;;2.00;99.90;;;;;;5108405;28;20024;-67
2024/02/29 01:42:41;;;;;;;65.18;27.77;;;2.00;99.90;;;;;;5108861;28;20051;-67
2024/02/29 01:45:07;;;;;;;66.22;27.85;;;2.00;99.90;;;;;;5107379;28;20596;-67
2024/02/29 01:47:32;;;;;;;66.07;28.20;;;2.10;99.90;;;;;;5106771;28;20043;-67
2024/02/29 01:50:03;;;;;;;58.92;26.55;;;2.00;99.90;;;;;;5108976;28;20027;-67
2024/02/29 01:52:32;;;;;;;61.85;28.63;;;2.00;99.90;;;;;;5107780;28;20464;-67
2024/02/29 01:54:58;;;;;;;56.80;24.45;;;2.00;99.90;;;;;;5108920;28;20057;-67
2024/02/29 01:57:24;;;;;;;58.25;26.40;;;2.10;99.90;;;;;;5107164;28;20015;-67
2024/02/29 01:59:50;;;;;;;56.60;26.05;;;2.00;99.90;;;;;;5109207;28;20024;-67
2024/02/29 02:02:16;;;;;;;58.42;26.52;;;2.10;99.90;;;;;;5108741;28;20480;-69
2024/02/29 02:04:41;;;;;;;55.20;25.67;;;2.10;99.90;;;;;;5108834;28;20103;-69
2024/02/29 02:07:09;;;;;;;51.05;25.05;;;2.10;99.90;;;;;;5108249;28;20512;-69
2024/02/29 02:09:40;;;;;;;53.83;24.65;;;2.10;99.90;;;;;;5107318;28;20047;-69
2024/02/29 02:12:07;;;;;;;55.03;26.17;;;2.10;99.90;;;;;;5106904;28;20028;-69
2024/02/29 02:14:33;;;;;;;59.70;24.73;;;2.10;99.90;;;;;;5107130;28;20078;-69
2024/02/29 02:16:59;;;;;;;56.08;24.92;;;2.10;99.90;;;;;;5108182;27;20535;-69
2024/02/29 02:19:25;;;;;;;54.03;22.58;;;2.00;99.90;;;;;;5108716;28;20518;-68
2024/02/29 02:21:51;;;;;;;45.47;21.02;;;2.10;99.90;;;;;;5107286;28;20027;-69
2024/02/29 02:24:17;;;;;;;49.70;20.70;;;2.10;99.90;;;;;;5107075;28;20028;-69
2024/02/29 02:26:42;;;;;;;49.83;21.45;;;2.10;99.90;;;;;;5106681;28;20081;-69
2024/02/29 02:29:08;;;;;;;46.53;21.33;;;2.20;99.90;;;;;;5107773;28;20370;-69
2024/02/29 02:31:34;;;;;;;40.47;19.00;;;2.20;99.90;;;;;;5106634;28;20527;-68
2024/02/29 02:34:00;;;;;;;38.65;18.52;;;2.20;99.90;;;;;;5107960;28;20377;-67
2024/02/29 02:36:25;;;;;;;43.30;19.77;;;2.30;99.90;;;;;;5107547;28;20076;-67
2024/02/29 02:38:51;;;;;;;39.70;18.30;;;2.30;99.90;;;;;;5108186;28;20027;-67
2024/02/29 02:41:16;;;;;;;38.58;18.77;;;2.40;99.90;;;;;;5108139;28;20092;-67
2024/02/29 02:43:48;;;;;;;36.40;17.00;;;2.40;99.90;;;;;;5107910;28;20371;-67
2024/02/29 02:46:13;;;;;;;36.95;18.27;;;2.50;99.90;;;;;;5106746;28;20043;-67
2024/02/29 02:48:39;;;;;;;36.25;16.67;;;2.50;99.90;;;;;;5108000;28;20020;-67
2024/02/29 02:51:04;;;;;;;37.28;17.13;;;2.60;99.90;;;;;;5107949;28;20179;-67
2024/02/29 02:53:30;;;;;;;36.67;18.00;;;2.60;99.90;;;;;;5108016;28;20023;-67
2024/02/29 02:55:55;;;;;;;38.58;15.60;;;2.60;99.90;;;;;;5108229;28;20375;-67
2024/02/29 02:58:21;;;;;;;33.92;16.63;;;2.60;99.90;;;;;;5108098;28;20020;-68
2024/02/29 03:00:46;;;;;;;35.70;16.08;;;2.60;99.90;;;;;;5107088;28;20580;-68
2024/02/29 03:03:12;;;;;;;40.17;17.92;;;2.70;99.90;;;;;;5107649;28;20044;-68
2024/02/29 03:05:37;;;;;;;35.70;16.58;;;2.70;99.90;;;;;;5107398;28;20376;-68
2024/02/29 03:08:03;;;;;;;36.00;17.27;;;2.70;99.90;;;;;;5107671;28;20028;-68
2024/02/29 03:10:29;;;;;;;34.20;17.73;;;2.70;99.90;;;;;;5107843;28;20077;-68
2024/02/29 03:12:54;;;;;;;38.22;16.80;;;2.70;99.90;;;;;;5106428;28;20027;-68
2024/02/29 03:15:20;;;;;;;33.40;15.50;;;2.80;99.90;;;;;;5108442;28;20399;-68
2024/02/29 03:17:45;;;;;;;33.83;16.80;;;2.80;99.90;;;;;;5107611;28;20018;-68
2024/02/29 03:20:13;;;;;;;37.05;16.83;;;2.80;99.90;;;;;;5106413;28;20061;-67
2024/02/29 03:22:42;;;;;;;35.17;16.58;;;2.80;99.90;;;;;;5106324;28;20024;-67
2024/02/29 03:25:09;;;;;;;33.88;16.30;;;2.80;99.90;;;;;;5109101;28;20031;-67
2024/02/29 03:27:35;;;;;;;34.20;15.95;;;2.80;99.90;;;;;;5111714;28;20047;-67
2024/02/29 03:30:00;;;;;;;36.35;16.73;;;2.80;99.90;;;;;;5111980;28;20081;-67
2024/02/29 03:32:27;;;;;;;32.72;16.05;;;2.90;99.90;;;;;;5111405;28;20072;-67
2024/02/29 03:34:52;;;;;;;33.78;16.15;;;2.90;99.90;;;;;;5112106;28;20064;-67
2024/02/29 03:37:18;;;;;;;28.85;15.07;;;2.90;99.90;;;;;;5109602;28;20045;-67
2024/02/29 03:39:44;;;;;;;28.77;15.20;;;2.90;99.90;;;;;;5111440;28;20434;-66
2024/02/29 03:42:10;;;;;;;32.03;14.90;;;2.90;99.90;;;;;;5111181;28;20515;-66
2024/02/29 03:44:35;;;;;;;35.17;14.73;;;2.90;99.90;;;;;;5111760;27;20027;-66
2024/02/29 03:47:01;;;;;;;27.77;14.45;;;2.90;99.90;;;;;;5110887;28;20429;-67
2024/02/29 03:49:27;;;;;;;28.63;14.55;;;2.90;99.90;;;;;;5110746;28;20039;-66
2024/02/29 03:51:52;;;;;;;35.33;16.88;;;2.80;99.90;;;;;;5109236;28;20378;-67
2024/02/29 03:54:18;;;;;;;31.27;15.75;;;2.80;99.90;;;;;;5110883;28;20034;-67
2024/02/29 03:56:43;;;;;;;31.77;15.63;;;2.80;99.90;;;;;;5110629;28;20464;-67
2024/02/29 03:59:09;;;;;;;34.42;16.55;;;2.80;99.90;;;;;;5110952;28;20051;-67
2024/02/29 04:01:36;;;;;;;34.90;15.93;;;2.80;99.90;;;;;;5110776;28;20020;-67
2024/02/29 04:04:01;;;;;;;31.75;15.27;;;2.80;99.90;;;;;;5109890;28;20018;-67
2024/02/29 04:06:27;;;;;;;26.98;14.60;;;2.80;99.90;;;;;;5110423;28;20032;-67
2024/02/29 04:08:53;;;;;;;26.27;13.20;;;2.80;99.90;;;;;;5109930;28;20392;-67
2024/02/29 04:11:19;;;;;;;29.15;13.75;;;2.80;99.90;;;;;;5110333;28;20127;-67
2024/02/29 04:13:45;;;;;;;26.80;13.95;;;2.80;99.90;;;;;;5110672;28;20068;-67
2024/02/29 04:16:11;;;;;;;31.95;13.40;;;2.80;99.90;;;;;;5108954;28;20529;-67
2024/02/29 04:18:37;;;;;;;34.78;16.27;;;2.80;99.90;;;;;;5110897;28;20049;-66
2024/02/29 04:21:03;;;;;;;26.15;12.68;;;2.90;99.90;;;;;;5110499;28;20011;-67
2024/02/29 04:23:28;;;;;;;25.88;13.50;;;2.90;99.90;;;;;;5110290;28;20031;-67
2024/02/29 04:25:54;;;;;;;29.98;14.00;;;2.90;99.90;;;;;;5108839;28;20031;-67
2024/02/29 04:28:19;;;;;;;32.45;14.82;;;2.90;99.90;;;;;;5110387;28;20054;-66
2024/02/29 04:30:45;;;;;;;27.95;13.45;;;2.90;99.90;;;;;;5110665;28;20106;-66
2024/02/29 04:33:13;;;;;;;27.33;13.10;;;2.90;99.90;;;;;;5109017;28;20076;-67
2024/02/29 04:35:39;;;;;;;25.70;12.75;;;3.00;99.90;;;;;;5109999;28;20015;-66
2024/02/29 04:38:05;;;;;;;30.63;14.23;;;3.00;99.90;;;;;;5110519;28;20016;-66
2024/02/29 04:40:31;;;;;;;28.15;13.45;;;3.00;99.90;;;;;;5110122;28;20024;-66
2024/02/29 04:42:56;;;;;;;31.50;13.02;;;3.00;99.90;;;;;;5108875;28;20019;-67
2024/02/29 04:45:23;;;;;;;27.13;12.32;;;3.00;99.90;;;;;;5110070;28;20091;-66
2024/02/29 04:47:49;;;;;;;25.70;12.65;;;3.00;99.90;;;;;;5108528;28;20023;-66
2024/02/29 04:50:15;;;;;;;24.42;12.48;;;3.00;99.90;;;;;;5109863;28;20476;-66
2024/02/29 04:52:40;;;;;;;25.48;12.10;;;3.00;99.90;;;;;;5109954;28;20032;-67
2024/02/29 04:55:06;;;;;;;27.25;13.85;;;3.00;99.90;;;;;;5109843;28;20277;-67
2024/02/29 04:57:31;;;;;;;30.45;14.88;;;3.00;99.90;;;;;;5107985;28;20023;-67
2024/02/29 04:59:57;;;;;;;26.65;12.88;;;3.00;99.90;;;;;;5108582;28;20088;-67
2024/02/29 05:02:23;;;;;;;28.38;14.60;;;3.00;99.90;;;;;;5109475;28;20023;-67
2024/02/29 05:04:48;;;;;;;31.30;14.18;;;3.10;99.90;;;;;;5109619;28;20460;-67
2024/02/29 05:07:14;;;;;;;27.55;13.05;;;3.10;99.90;;;;;;5109401;28;20027;-67
2024/02/29 05:09:39;;;;;;;29.92;14.05;;;3.10;99.90;;;;;;5109286;28;20039;-67
2024/02/29 05:12:05;;;;;;;28.23;14.23;;;3.10;99.90;;;;;;5109667;28;20518;-67
2024/02/29 05:14:30;;;;;;;26.40;13.77;;;3.10;99.90;;;;;;5109328;28;20038;-67
2024/02/29 05:16:56;;;;;;;30.05;13.68;;;3.10;99.90;;;;;;5107895;28;20019;-67
2024/02/29 05:19:21;;;;;;;29.92;13.35;;;3.10;99.90;;;;;;5107631;28;20024;-67
2024/02/29 05:21:47;;;;;;;27.20;12.73;;;3.10;99.90;;;;;;5109342;28;20502;-67
2024/02/29 05:24:13;;;;;;;24.80;12.30;;;3.10;99.90;;;;;;5108235;28;20045;-67
2024/02/29 05:26:39;;;;;;;24.77;12.35;;;3.10;99.90;;;;;;5107822;28;20028;-67
2024/02/29 05:29:05;;;;;;;29.52;13.68;;;3.10;99.90;;;;;;5108021;28;20015;-66
2024/02/29 05:31:31;;;;;;;24.90;12.07;;;3.10;99.90;;;;;;5109013;28;20020;-66
2024/02/29 05:33:56;;;;;;;25.65;12.95;;;3.10;99.90;;;;;;5109235;28;20020;-66
2024/02/29 05:36:22;;;;;;;26.30;12.88;;;3.10;99.90;;;;;;5108916;28;20031;-66
2024/02/29 05:38:50;;;;;;;28.42;12.65;;;3.20;99.90;;;;;;5109211;28;20479;-66
2024/02/29 05:41:16;;;;;;;26.35;13.20;;;3.10;99.90;;;;;;5107323;28;20683;-66
2024/02/29 05:43:41;;;;;;;29.17;14.52;;;3.10;99.90;;;;;;5108933;28;20465;-66
2024/02/29 05:46:07;;;;;;;26.80;13.77;;;3.10;99.90;;;;;;5108620;28;20134;-66
2024/02/29 05:48:35;;;;;;;22.58;12.25;;;3.10;99.90;;;;;;5106540;28;20019;-66
2024/02/29 05:51:02;;;;;;;25.52;11.80;;;3.10;99.90;;;;;;5108678;28;20495;-66
2024/02/29 05:53:27;;;;;;;26.85;12.73;;;3.00;99.90;;;;;;5108770;28;20027;-66
2024/02/29 05:55:53;;;;;;;28.17;13.05;;;3.00;99.90;;;;;;5106882;28;20238;-66
2024/02/29 05:58:18;;;;;;;28.77;13.98;;;3.00;99.90;;;;;;5107642;28;20051;-66
2024/02/29 06:00:44;;;;;;;24.17;12.70;;;3.00;99.90;;;;;;5109005;28;20258;-66
2024/02/29 06:03:10;;;;;;;23.00;11.65;;;3.00;99.90;;;;;;5108759;27;20062;-66
2024/02/29 06:05:35;;;;;;;27.23;12.27;;;3.00;99.90;;;;;;5108009;28;20031;-66
2024/02/29 06:08:03;;;;;;;29.95;13.30;;;2.90;99.90;;;;;;5108524;28;20024;-66
2024/02/29 06:10:29;;;;;;;27.35;12.98;;;2.90;99.90;;;;;;5108570;28;20028;-66
2024/02/29 06:12:54;;;;;;;24.67;13.13;;;2.90;99.90;;;;;;5108481;28;20438;-66
2024/02/29 06:15:20;;;;;;;24.95;11.75;;;2.90;99.90;;;;;;5108393;28;20447;-66
2024/02/29 06:17:46;;;;;;;25.55;12.15;;;2.90;99.90;;;;;;5106659;28;20015;-66
2024/02/29 06:20:12;;;;;;;25.25;12.48;;;2.90;99.90;;;;;;5108494;28;20128;-65
2024/02/29 06:22:41;;;;;;;24.08;11.52;;;2.90;99.90;;;;;;5107885;28;20271;-65
2024/02/29 06:25:08;;;;;;;22.35;11.30;;;2.90;99.90;;;;;;5108247;28;20530;-66
2024/02/29 06:27:34;;;;;;;20.42;10.13;;;3.00;99.90;;;;;;5107623;28;20028;-65
2024/02/29 06:30:02;;;;;;;25.80;12.57;;;3.00;99.90;;;;;;5108766;28;20432;-65
2024/02/29 06:32:27;;;;;;;24.15;11.85;;;3.00;99.90;;;;;;5105774;28;20059;-65
2024/02/29 06:34:53;;;;;;;24.05;11.30;;;3.00;99.90;;;;;;5108165;28;20043;-65
2024/02/29 06:37:19;;;;;;;24.60;11.60;;;3.00;99.90;;;;;;5107820;28;20302;-62
2024/02/29 06:39:45;;;;;;;24.20;12.13;;;3.10;99.90;;;;;;5108312;28;20024;-64
2024/02/29 06:42:11;;;;;;;24.48;11.90;;;3.10;99.90;;;;;;5108568;28;20016;-65
2024/02/29 06:44:36;;;;;;;22.00;12.02;;;3.20;99.90;;;;;;5108530;28;20620;-64
2024/02/29 06:47:02;;;;;;;25.95;12.07;;;3.20;99.90;;;;;;5108056;28;20061;-65
2024/02/29 06:49:27;;;;;;;24.83;11.82;;;3.20;99.90;;;;;;5108364;28;20412;-64
2024/02/29 06:51:53;;;;;;;23.45;11.15;;;3.30;99.90;;;;;;5108305;28;20015;-64
2024/02/29 06:54:18;;;;;;;23.60;11.55;;;3.30;99.90;;;;;;5107210;28;20079;-65
2024/02/29 06:56:45;;;;;;;27.25;12.55;;;3.40;99.90;;;;;;5107415;28;20140;-65
2024/02/29 06:59:10;;;;;;;23.08;11.95;;;3.40;99.90;;;;;;5108472;28;20107;-65
2024/02/29 07:01:36;;;;;;;23.60;12.43;;;3.50;99.90;;;;;;5111116;28;20464;-65
2024/02/29 07:04:02;;;;;;;25.20;11.80;;;3.60;99.90;;;;;;5110979;28;20464;-65
2024/02/29 07:06:28;;;;;;;23.05;11.75;;;3.70;99.90;;;;;;5111676;28;20058;-65
2024/02/29 07:08:54;;;;;;;21.75;11.95;;;3.80;99.90;;;;;;5112036;28;20027;-65
2024/02/29 07:11:20;;;;;;;24.08;11.63;;;3.80;99.90;;;;;;5110896;28;20126;-65
2024/02/29 07:13:47;;;;;;;21.63;10.93;;;3.90;99.90;;;;;;5110923;28;20038;-65
2024/02/29 07:16:13;;;;;;;19.70;9.95;;;4.00;99.90;;;;;;5112117;28;20015;-65
2024/02/29 07:18:39;;;;;;;19.52;9.55;;;4.00;99.90;;;;;;5112309;28;20031;-65
2024/02/29 07:21:04;;;;;;;22.20;11.13;;;4.10;99.90;;;;;;5112558;28;20058;-65
2024/02/29 07:23:31;;;;;;;20.85;10.70;;;4.10;99.90;;;;;;5111863;28;20024;-65
2024/02/29 07:25:57;;;;;;;18.50;9.15;;;4.20;99.90;;;;;;5111478;27;20030;-65
2024/02/29 07:28:23;;;;;;;17.67;9.95;;;4.30;99.90;;;;;;5111766;28;20552;-65
2024/02/29 07:30:49;;;;;;;18.13;10.13;;;4.40;99.90;;;;;;5111859;28;20028;-65
2024/02/29 07:33:14;;;;;;;17.10;9.27;;;4.40;99.90;;;;;;5111549;28;20064;-65
2024/02/29 07:35:40;;;;;;;18.98;10.75;;;4.50;99.90;;;;;;5111118;28;20019;-65
2024/02/29 07:38:05;;;;;;;20.20;11.02;;;4.50;99.90;;;;;;5111645;28;20092;-65
2024/02/29 07:40:31;;;;;;;19.35;10.10;;;4.60;99.90;;;;;;5111562;28;20107;-65
2024/02/29 07:42:56;;;;;;;21.10;11.02;;;4.70;99.90;;;;;;5111896;28;20039;-65
2024/02/29 07:45:22;;;;;;;22.02;11.18;;;4.80;99.90;;;;;;5111455;28;20508;-65
2024/02/29 07:47:47;;;;;;;26.27;11.50;;;4.90;99.90;;;;;;5110725;28;20479;-65
2024/02/29 07:50:13;;;;;;;20.75;10.23;;;4.90;99.90;;;;;;5111379;28;20579;-65
2024/02/29 07:52:39;;;;;;;18.50;10.32;;;5.00;99.90;;;;;;5111110;28;20028;-65
2024/02/29 07:55:05;;;;;;;21.15;10.52;;;5.10;99.90;;;;;;5111226;28;20022;-65
2024/02/29 07:57:31;;;;;;;20.50;9.85;;;5.20;99.90;;;;;;5110627;28;20476;-65
2024/02/29 07:59:57;;;;;;;19.40;11.23;;;5.30;99.90;;;;;;5111165;28;20020;-65
2024/02/29 08:02:22;;;;;;;21.08;9.30;;;5.40;99.90;;;;;;5109755;28;20027;-65
2024/02/29 08:04:48;;;;;;;20.10;10.77;;;5.50;99.90;;;;;;5114574;27;20051;-65
2024/02/29 08:07:13;;;;;;;18.40;9.80;;;5.60;99.90;;;;;;5110395;28;20092;-65
2024/02/29 08:09:39;;;;;;;19.63;9.85;;;5.70;99.90;;;;;;5109390;28;20028;-65
2024/02/29 08:12:05;;;;;;;16.17;9.43;;;5.80;99.90;;;;;;5110121;28;20024;-65
2024/02/29 08:14:31;;;;;;;16.83;9.93;;;5.80;99.90;;;;;;5110572;28;20035;-65
2024/02/29 08:16:57;;;;;;;20.10;10.32;;;5.90;99.90;;;;;;5110693;28;20028;-65
2024/02/29 08:19:26;;;;;;;16.13;8.75;;;6.00;99.90;;;;;;5110979;27;20092;-66
2024/02/29 08:21:52;;;;;;;17.58;9.20;;;6.00;99.90;;;;;;5109852;28;20026;-65
2024/02/29 08:24:17;;;;;;;16.60;9.02;;;6.20;99.90;;;;;;5109509;28;20027;-65
2024/02/29 08:26:43;;;;;;;17.00;8.55;;;6.30;99.90;;;;;;5110554;28;20191;-65
2024/02/29 08:29:14;;;;;;;16.35;8.52;;;6.30;99.90;;;;;;5110896;28;20400;-65
2024/02/29 08:31:41;;;;;;;;;;;6.50;99.90;;;;;;5111286;28;20476;-65
2024/02/29 08:34:06;;;;;;;15.40;8.98;;;6.50;99.90;;;;;;5111222;28;19914;-65
2024/02/29 08:36:32;;;;;;;13.45;7.97;;;6.70;99.90;;;;;;5110478;28;20024;-65
2024/02/29 08:38:58;;;;;;;16.75;9.18;;;6.80;99.90;;;;;;5110607;28;20458;-65
2024/02/29 08:41:24;;;;;;;16.10;9.75;;;6.80;99.90;;;;;;5110608;28;20384;-65
2024/02/29 08:43:49;;;;;;;16.58;9.80;;;7.00;99.90;;;;;;5110536;28;20047;-66
2024/02/29 08:46:15;;;;;;;15.73;9.50;;;7.10;99.90;;;;;;5110016;28;20413;-65
2024/02/29 08:48:42;;;;;;;15.63;9.18;;;7.10;99.90;;;;;;5110288;28;20035;-66
2024/02/29 08:51:08;;;;;;;19.98;9.48;;;7.20;99.90;;;;;;5109113;28;20058;-66
2024/02/29 08:53:34;;;;;;;20.80;10.75;;;7.40;99.90;;;;;;5108938;28;20028;-66
2024/02/29 08:55:59;;;;;;;16.40;9.40;;;7.50;99.90;;;;;;5109491;28;20064;-65
2024/02/29 08:58:25;;;;;;;17.30;9.68;;;7.60;99.90;;;;;;5110136;28;20008;-65
2024/02/29 09:00:50;;;;;;;21.00;10.30;;;7.80;99.90;;;;;;5108997;28;20054;-65
2024/02/29 09:03:16;;;;;;;19.80;10.30;;;7.90;99.90;;;;;;5107617;28;20081;-66
2024/02/29 09:05:41;;;;;;;20.00;10.27;;;8.00;99.90;;;;;;5109177;28;20023;-65
2024/02/29 09:08:08;;;;;;;16.73;10.18;;;8.10;99.90;;;;;;5110080;28;20066;-66
2024/02/29 09:10:35;;;;;;;18.95;11.23;;;8.30;99.90;;;;;;5109936;28;20095;-65
2024/02/29 09:13:01;;;;;;;19.40;10.88;;;8.50;99.90;;;;;;5109924;28;20042;-66
2024/02/29 09:15:26;;;;;;;15.95;9.25;;;8.70;99.90;;;;;;5109935;28;20076;-66
2024/02/29 09:17:52;;;;;;;17.52;10.45;;;9.60;99.90;;;;;;5109537;28;20031;-66
2024/02/29 09:20:18;;;;;;;18.23;10.60;;;11.00;96.60;;;;;;5110035;28;20382;-67
2024/02/29 09:22:44;;;;;;;18.10;11.43;;;12.40;94.80;;;;;;5108997;28;20020;-67
2024/02/29 09:25:09;;;;;;;17.52;10.80;;;13.50;91.20;;;;;;5109749;28;20504;-67
2024/02/29 09:27:35;;;;;;;15.70;11.18;;;14.80;86.50;;;;;;5109321;28;20024;-67
2024/02/29 09:30:01;;;;;;;14.70;10.80;;;15.60;84.30;;;;;;5109952;28;20512;-67
2024/02/29 09:32:26;;;;;;;17.77;12.95;;;16.20;81.30;;;;;;5109866;28;20035;-67
2024/02/29 09:34:52;;;;;;;16.17;11.75;;;16.70;76.70;;;;;;5109739;28;20028;-67
2024/02/29 09:37:17;;;;;;;17.08;12.32;;;16.90;74.20;;;;;;5109432;28;20195;-68
2024/02/29 09:39:43;;;;;;;18.60;13.15;;;16.50;75.60;;;;;;5109904;28;20023;-67
2024/02/29 09:42:09;;;;;;;15.65;11.90;;;16.40;75.40;;;;;;5109600;28;20392;-67
2024/02/29 09:44:36;;;;;;;16.50;12.52;;;17.10;74.30;;;;;;5109426;28;20111;-67
2024/02/29 09:47:02;;;;;;;15.00;10.55;;;16.70;74.70;;;;;;5109056;28;20120;-67
2024/02/29 09:49:28;;;;;;;17.77;12.15;;;17.50;74.40;;;;;;5108164;28;20527;-67
2024/02/29 09:51:53;;;;;;;15.70;11.05;;;18.40;71.60;;;;;;5108988;28;20098;-66
2024/02/29 09:54:21;;;;;;;15.18;11.60;;;19.10;70.40;;;;;;5109035;28;20103;-67
2024/02/29 09:56:46;;;;;;;16.30;11.15;;;19.90;67.60;;;;;;5108715;28;20210;-67
2024/02/29 09:59:17;;;;;;;13.23;10.77;;;20.20;67.60;;;;;;5108985;28;20098;-67
2024/02/29 10:01:49;;;;;;;13.88;11.32;;;21.50;64.70;;;;;;5108772;28;20020;-67
2024/02/29 10:04:15;;;;;;;14.95;11.32;;;21.80;60.90;;;;;;5109033;28;20022;-67
2024/02/29 10:06:41;;;;;;;16.58;13.02;;;21.10;63.20;;;;;;5108675;28;20092;-67
2024/02/29 10:09:07;;;;;;;16.00;11.52;;;21.00;61.70;;;;;;5109138;28;20431;-67
2024/02/29 10:11:33;;;;;;;17.17;11.88;;;21.20;62.20;;;;;;5108726;28;20637;-67
2024/02/29 10:14:01;;;;;;;17.80;12.85;;;20.90;61.90;;;;;;5108455;28;20031;-67
2024/02/29 10:16:27;;;;;;;19.00;13.25;;;20.70;61.50;;;;;;5108331;27;20472;-67
2024/02/29 10:18:52;;;;;;;17.42;12.93;;;20.60;61.30;;;;;;5107372;28;20024;-67
2024/02/29 10:21:18;;;;;;;18.92;14.23;;;20.30;61.70;;;;;;5108679;28;20019;-67
2024/02/29 10:23:43;;;;;;;17.58;13.20;;;20.70;61.60;;;;;;5108531;28;20036;-67
2024/02/29 10:26:09;;;;;;;15.88;13.02;;;21.20;60.70;;;;;;5106997;28;20016;-66
2024/02/29 10:28:35;;;;;;;16.95;13.75;;;21.30;59.90;;;;;;5108423;28;20452;-66
2024/02/29 10:31:01;;;;;;;19.40;15.40;;;21.40;60.90;;;;;;5108507;28;20144;-67
2024/02/29 10:33:30;;;;;;;16.67;12.95;;;20.70;61.50;;;;;;5108716;28;20473;-67
2024/02/29 10:35:56;;;;;;;20.30;14.50;;;21.30;61.10;;;;;;5108443;28;20020;-67
2024/02/29 10:38:22;;;;;;;17.73;12.73;;;20.80;60.40;;;;;;5109000;28;20019;-68
2024/02/29 10:40:50;;;;;;;13.23;11.40;;;21.10;61.30;;;;;;5108498;28;20396;-67
2024/02/29 10:43:17;;;;;;;14.80;11.60;;;21.60;61.60;;;;;;5108500;28;20020;-68
2024/02/29 10:45:46;;;;;;;15.13;11.27;;;22.00;59.10;;;;;;5108081;28;20103;-67
2024/02/29 10:48:33;;;;;;;13.25;10.65;;;22.50;58.60;;;;;;5108177;28;20098;-68
2024/02/29 10:51:08;;;;;;;13.55;10.88;;;22.90;56.00;;;;;;5107827;28;20054;-67
2024/02/29 10:53:40;;;;;;;15.23;12.30;;;22.70;57.50;;;;;;5106620;28;20027;-67
2024/02/29 10:56:25;;;;;;;14.55;9.00;;;22.90;56.50;;;;;;5107880;28;20319;-67
2024/02/29 10:59:07;;;;;;;13.70;10.35;;;22.40;56.80;;;;;;5108083;28;20460;-67
2024/02/29 11:01:36;;;;;;;11.85;9.57;;;22.70;55.90;;;;;;5108195;28;20871;-67
2024/02/29 11:04:03;;;;;;;10.52;8.70;;;23.00;57.00;;;;;;5108044;28;20031;-67
2024/02/29 11:06:37;;;;;;;11.40;8.90;;;23.50;55.70;;;;;;5107836;28;20388;-67
2024/02/29 11:09:08;;;;;;;14.70;11.38;;;23.40;55.90;;;;;;5108002;28;20069;-66
2024/02/29 11:11:33;;;;;;;14.90;10.57;;;22.40;54.70;;;;;;5108341;28;20383;-66
2024/02/29 11:14:05;;;;;;;15.10;11.50;;;22.20;55.20;;;;;;5107776;28;20111;-67
2024/02/29 11:16:45;;;;;;;10.68;9.05;;;21.60;56.20;;;;;;5108009;28;20026;-66
2024/02/29 11:19:15;;;;;;;12.30;9.57;;;22.30;58.00;;;;;;5108176;28;20414;-67
2024/02/29 11:21:41;;;;;;;11.45;8.80;;;21.60;57.60;;;;;;5106669;28;20472;-67
2024/02/29 11:24:08;;;;;;;13.43;10.25;;;22.40;56.50;;;;;;5107552;28;20036;-67
2024/02/29 11:26:35;;;;;;;12.02;8.63;;;23.20;55.20;;;;;;5107481;28;20035;-68
2024/02/29 11:29:14;;;;;;;12.98;9.18;;;23.20;55.30;;;;;;5107581;28;20420;-67
2024/02/29 11:31:58;;;;;;;13.63;9.55;;;24.20;55.30;;;;;;5107477;28;20038;-67
2024/02/29 11:34:24;;;;;;;14.38;10.95;;;24.10;53.80;;;;;;5101873;28;20322;-67
2024/02/29 11:36:51;;;;;;;12.57;9.60;;;22.80;57.20;;;;;;5107683;28;20369;-67
2024/02/29 11:39:18;;;;;;;11.98;9.40;;;22.10;59.10;;;;;;5107893;28;20024;-66
2024/02/29 11:41:44;;;;;;;11.27;9.57;;;22.40;55.20;;;;;;5107610;28;20041;-67
2024/02/29 11:44:10;;;;;;;12.18;8.68;;;22.90;53.90;;;;;;5107952;28;20072;-67
2024/02/29 11:46:43;;;;;;;9.50;8.50;;;23.70;54.10;;;;;;5109727;28;20039;-67
2024/02/29 11:49:13;;;;;;;11.95;9.60;;;24.30;52.50;;;;;;5110508;28;20114;-67
2024/02/29 11:51:40;;;;;;;12.15;9.45;;;24.00;51.30;;;;;;5111455;28;20021;-67
2024/02/29 11:54:06;;;;;;;13.77;10.32;;;23.20;52.40;;;;;;5110056;28;20468;-67
2024/02/29 11:56:31;;;;;;;9.88;8.20;;;23.30;53.90;;;;;;5110917;28;20584;-67
2024/02/29 11:59:02;;;;;;;10.88;9.18;;;23.30;52.00;;;;;;5111589;28;20102;-67
2024/02/29 12:01:28;;;;;;;11.63;9.32;;;23.10;52.90;;;;;;5111301;28;20073;-66
2024/02/29 12:03:53;;;;;;;11.85;10.00;;;23.40;52.80;;;;;;5111071;28;20024;-66
2024/02/29 12:06:20;;;;;;;9.57;7.82;;;23.80;52.00;;;;;;5110669;28;20551;-68
2024/02/29 12:08:45;;;;;;;12.27;10.38;;;24.60;53.40;;;;;;5110781;28;20030;-68
2024/02/29 12:11:11;;;;;;;12.68;10.23;;;24.30;51.50;;;;;;5111046;28;20086;-68
2024/02/29 12:13:38;;;;;;;14.02;10.77;;;23.90;53.10;;;;;;5111030;28;20531;-68
2024/02/29 12:16:04;;;;;;;11.82;8.15;;;23.60;51.60;;;;;;5109113;28;20028;-68
2024/02/29 12:18:30;;;;;;;11.07;9.15;;;23.20;55.20;;;;;;5110996;28;20015;-67
2024/02/29 12:20:56;;;;;;;11.40;8.98;;;22.50;54.20;;;;;;5109089;28;20502;-68
2024/02/29 12:23:23;;;;;;;10.48;9.10;;;22.20;54.10;;;;;;5109589;28;20032;-67
2024/02/29 12:25:49;;;;;;;11.02;9.07;;;22.20;55.00;;;;;;5110286;28;20395;-67
2024/02/29 12:28:15;;;;;;;12.25;9.52;;;22.80;55.60;;;;;;5111083;28;20222;-67
2024/02/29 12:30:41;;;;;;;15.57;10.95;;;22.90;55.00;;;;;;5109407;28;20227;-67